Time;durP1;ratioP1;P1;durP2;ratioP2;P2;SDS_P1;SDS_P2;PMS_P1;PMS_P2;Temp;Humidity;BMP_temperature;BMP_pressure;BME280_temperature;BME280_humidity;BME280_pressure;Samples;Min_cycle;Max_cycle;Signal;HPM_P1;HPM_P2
2019/06/13 00:02:06;;;;;;;1.95;1.37;;;;;;;21.00;52.88;100305.91;;;;-59
2019/06/13 00:05:06;;;;;;;2.41;1.40;;;;;;;20.99;52.88;100299.72;;;;-59
2019/06/13 00:08:05;;;;;;;1.94;1.39;;;;;;;20.98;52.86;100300.46;;;;-59
2019/06/13 00:11:06;;;;;;;1.59;1.40;;;;;;;20.98;52.85;100299.79;;;;-59
2019/06/13 00:14:06;;;;;;;2.13;1.50;;;;;;;20.98;52.85;100296.77;;;;-59
2019/06/13 00:17:06;;;;;;;2.09;1.50;;;;;;;20.98;52.85;100302.04;;;;-59
2019/06/13 00:20:06;;;;;;;2.80;1.34;;;;;;;20.97;52.85;100297.41;;;;-59
2019/06/13 00:23:06;;;;;;;2.63;1.55;;;;;;;20.97;52.86;100291.93;;;;-60
2019/06/13 00:26:05;;;;;;;1.72;1.40;;;;;;;20.97;52.85;100293.54;;;;-59
2019/06/13 00:29:05;;;;;;;2.47;1.53;;;;;;;20.96;52.84;100303.08;;;;-59
2019/06/13 00:32:06;;;;;;;2.35;1.48;;;;;;;20.96;52.88;100308.45;;;;-59
2019/06/13 00:35:06;;;;;;;1.58;1.48;;;;;;;20.94;52.88;100314.69;;;;-59
2019/06/13 00:38:06;;;;;;;1.54;1.40;;;;;;;20.95;52.84;100314.19;;;;-59
2019/06/13 00:41:06;;;;;;;1.80;1.50;;;;;;;20.95;52.84;100316.13;;;;-59
2019/06/13 00:44:05;;;;;;;1.55;1.45;;;;;;;20.95;52.86;100324.36;;;;-59
2019/06/13 00:47:06;;;;;;;1.73;1.30;;;;;;;20.94;52.85;100331.03;;;;-59
2019/06/13 00:50:06;;;;;;;1.75;1.41;;;;;;;20.93;52.83;100332.95;;;;-59
2019/06/13 00:53:06;;;;;;;1.87;1.49;;;;;;;20.93;52.80;100333.12;;;;-59
2019/06/13 00:56:06;;;;;;;2.02;1.45;;;;;;;20.92;52.82;100335.94;;;;-59
2019/06/13 00:59:06;;;;;;;1.88;1.43;;;;;;;20.93;52.81;100341.23;;;;-59
2019/06/13 01:02:06;;;;;;;1.82;1.50;;;;;;;20.92;52.82;100342.48;;;;-59
2019/06/13 01:05:06;;;;;;;1.65;1.36;;;;;;;20.92;52.82;100336.91;;;;-60
2019/06/13 01:08:06;;;;;;;1.62;1.46;;;;;;;20.92;52.80;100343.22;;;;-59
2019/06/13 01:11:06;;;;;;;1.46;1.33;;;;;;;20.91;52.85;100338.25;;;;-59
2019/06/13 01:14:06;;;;;;;1.51;1.31;;;;;;;20.91;52.86;100338.66;;;;-51
2019/06/13 01:17:06;;;;;;;3.73;1.50;;;;;;;20.91;52.83;100337.88;;;;-51
2019/06/13 01:20:06;;;;;;;1.51;1.41;;;;;;;20.90;52.87;100347.61;;;;-48
2019/06/13 01:23:05;;;;;;;1.92;1.33;;;;;;;20.90;52.87;100355.50;;;;-49
2019/06/13 01:26:06;;;;;;;1.98;1.30;;;;;;;20.90;52.84;100349.92;;;;-48
2019/06/13 01:29:06;;;;;;;1.89;1.36;;;;;;;20.89;52.85;100346.13;;;;-48
2019/06/13 01:32:06;;;;;;;2.12;1.49;;;;;;;20.89;52.84;100337.91;;;;-48
2019/06/13 01:35:06;;;;;;;1.79;1.44;;;;;;;20.90;52.87;100339.35;;;;-48
2019/06/13 01:38:06;;;;;;;1.43;1.30;;;;;;;20.89;52.85;100342.50;;;;-48
2019/06/13 01:41:05;;;;;;;2.05;1.39;;;;;;;20.88;52.89;100340.22;;;;-48
2019/06/13 01:44:05;;;;;;;1.47;1.35;;;;;;;20.88;52.87;100334.78;;;;-48
2019/06/13 01:47:05;;;;;;;1.31;1.21;;;;;;;20.88;52.88;100336.59;;;;-53
2019/06/13 01:50:06;;;;;;;2.17;1.31;;;;;;;20.87;52.88;100331.28;;;;-53
2019/06/13 01:53:06;;;;;;;1.69;1.36;;;;;;;20.87;52.87;100333.13;;;;-53
2019/06/13 01:56:06;;;;;;;1.39;1.29;;;;;;;20.87;52.87;100331.55;;;;-53
2019/06/13 01:59:05;;;;;;;1.63;1.29;;;;;;;20.86;52.88;100334.64;;;;-53
2019/06/13 02:02:06;;;;;;;1.29;1.19;;;;;;;20.86;52.86;100337.45;;;;-53
2019/06/13 02:05:06;;;;;;;1.40;1.30;;;;;;;20.86;52.87;100355.76;;;;-53
2019/06/13 02:08:06;;;;;;;1.38;1.25;;;;;;;20.85;52.86;100364.28;;;;-48
2019/06/13 02:11:06;;;;;;;1.72;1.30;;;;;;;20.85;52.86;100368.91;;;;-48
2019/06/13 02:14:06;;;;;;;1.38;1.28;;;;;;;20.85;52.84;100364.78;;;;-48
2019/06/13 02:17:05;;;;;;;1.40;1.30;;;;;;;20.85;52.87;100367.70;;;;-59
2019/06/13 02:20:05;;;;;;;1.49;1.39;;;;;;;20.85;52.86;100372.17;;;;-59
2019/06/13 02:23:05;;;;;;;1.29;1.19;;;;;;;20.85;52.84;100371.50;;;;-59
2019/06/13 02:26:06;;;;;;;1.33;1.23;;;;;;;20.83;52.85;100369.17;;;;-59
2019/06/13 02:29:06;;;;;;;1.72;1.33;;;;;;;20.84;52.86;100371.45;;;;-52
2019/06/13 02:32:06;;;;;;;1.45;1.29;;;;;;;20.83;52.88;100366.32;;;;-53
2019/06/13 02:35:06;;;;;;;1.47;1.29;;;;;;;20.83;52.87;100357.26;;;;-52
2019/06/13 02:38:05;;;;;;;1.53;1.31;;;;;;;20.83;52.89;100357.32;;;;-52
2019/06/13 02:41:05;;;;;;;1.63;1.20;;;;;;;20.83;52.87;100355.98;;;;-59
2019/06/13 02:44:06;;;;;;;1.59;1.33;;;;;;;20.82;52.87;100353.59;;;;-59
2019/06/13 02:47:06;;;;;;;1.63;1.29;;;;;;;20.82;52.89;100357.19;;;;-48
2019/06/13 02:50:06;;;;;;;1.40;1.30;;;;;;;20.82;52.91;100353.19;;;;-48
2019/06/13 02:53:06;;;;;;;2.08;1.29;;;;;;;20.81;52.88;100347.11;;;;-48
2019/06/13 02:56:05;;;;;;;1.30;1.20;;;;;;;20.81;52.90;100353.42;;;;-48
2019/06/13 02:59:06;;;;;;;1.37;1.23;;;;;;;20.81;52.88;100351.20;;;;-50
2019/06/13 03:02:06;;;;;;;1.45;1.25;;;;;;;20.81;52.92;100354.66;;;;-59
2019/06/13 03:05:05;;;;;;;1.43;1.31;;;;;;;20.81;52.91;100360.17;;;;-59
2019/06/13 03:08:06;;;;;;;1.71;1.16;;;;;;;20.80;52.92;100355.06;;;;-49
2019/06/13 03:11:06;;;;;;;1.31;1.21;;;;;;;20.80;52.90;100350.20;;;;-48
2019/06/13 03:14:06;;;;;;;1.18;1.13;;;;;;;20.80;52.88;100349.76;;;;-48
2019/06/13 03:17:05;;;;;;;1.45;1.29;;;;;;;20.80;52.90;100348.98;;;;-48
2019/06/13 03:20:06;;;;;;;1.22;1.16;;;;;;;20.80;52.94;100364.94;;;;-48
2019/06/13 03:23:06;;;;;;;1.42;1.24;;;;;;;20.79;52.90;100377.72;;;;-51
2019/06/13 03:26:06;;;;;;;1.45;1.30;;;;;;;20.79;52.90;100379.63;;;;-48
2019/06/13 03:29:06;;;;;;;1.81;1.37;;;;;;;20.79;52.92;100380.41;;;;-48
2019/06/13 03:32:05;;;;;;;1.51;1.29;;;;;;;20.79;52.91;100381.98;;;;-48
2019/06/13 03:35:06;;;;;;;1.30;1.20;;;;;;;20.78;52.91;100377.28;;;;-51
2019/06/13 03:38:06;;;;;;;1.23;1.15;;;;;;;20.79;52.89;100384.94;;;;-51
2019/06/13 03:41:05;;;;;;;1.29;1.19;;;;;;;20.78;52.87;100394.53;;;;-51
2019/06/13 03:44:05;;;;;;;1.20;1.10;;;;;;;20.78;52.90;100399.66;;;;-53
2019/06/13 03:47:06;;;;;;;1.28;1.15;;;;;;;20.77;52.85;100400.30;;;;-52
2019/06/13 03:50:05;;;;;;;1.30;1.20;;;;;;;20.78;52.92;100400.84;;;;-53
2019/06/13 03:53:05;;;;;;;1.34;1.24;;;;;;;20.77;52.92;100398.05;;;;-53
2019/06/13 03:56:06;;;;;;;1.71;1.18;;;;;;;20.76;52.94;100407.64;;;;-51
2019/06/13 03:59:06;;;;;;;1.44;1.30;;;;;;;20.77;52.89;100410.20;;;;-51
2019/06/13 04:02:06;;;;;;;1.97;1.20;;;;;;;20.76;52.85;100400.26;;;;-51
2019/06/13 04:05:06;;;;;;;1.26;1.17;;;;;;;20.77;52.89;100408.59;;;;-51
2019/06/13 04:08:06;;;;;;;1.42;1.15;;;;;;;20.76;52.88;100411.00;;;;-51
2019/06/13 04:11:05;;;;;;;1.37;1.20;;;;;;;20.76;52.85;100410.33;;;;-51
2019/06/13 04:14:06;;;;;;;1.28;1.18;;;;;;;20.76;52.83;100412.24;;;;-51
2019/06/13 04:17:06;;;;;;;1.41;1.30;;;;;;;20.76;52.85;100413.52;;;;-51
2019/06/13 04:20:05;;;;;;;1.55;1.15;;;;;;;20.75;52.85;100414.09;;;;-51
2019/06/13 04:23:06;;;;;;;1.22;1.13;;;;;;;20.75;52.83;100408.61;;;;-51
2019/06/13 04:26:06;;;;;;;1.18;1.10;;;;;;;20.75;52.82;100407.84;;;;-51
2019/06/13 04:29:05;;;;;;;1.31;1.21;;;;;;;20.74;52.80;100409.02;;;;-51
2019/06/13 04:32:06;;;;;;;1.37;1.27;;;;;;;20.75;52.83;100409.62;;;;-51
2019/06/13 04:35:05;;;;;;;1.20;1.10;;;;;;;20.75;52.83;100412.54;;;;-52
2019/06/13 04:38:06;;;;;;;1.29;1.19;;;;;;;20.74;52.82;100411.09;;;;-51
2019/06/13 04:41:06;;;;;;;1.31;1.19;;;;;;;20.74;52.84;100412.54;;;;-51
2019/06/13 04:44:06;;;;;;;1.39;1.19;;;;;;;20.74;52.80;100409.98;;;;-51
2019/06/13 04:47:05;;;;;;;1.07;1.00;;;;;;;20.74;52.82;100410.76;;;;-51
2019/06/13 04:50:05;;;;;;;1.28;1.18;;;;;;;20.73;52.82;100413.00;;;;-51
2019/06/13 04:53:06;;;;;;;1.27;1.18;;;;;;;20.74;52.86;100417.03;;;;-48
2019/06/13 04:56:05;;;;;;;1.30;1.20;;;;;;;20.74;52.86;100420.56;;;;-48
2019/06/13 04:59:06;;;;;;;1.21;1.11;;;;;;;20.74;52.84;100422.67;;;;-48
2019/06/13 05:02:06;;;;;;;1.32;1.22;;;;;;;20.73;52.84;100423.47;;;;-48
2019/06/13 05:05:05;;;;;;;1.00;1.00;;;;;;;20.72;52.99;100423.33;;;;-50
2019/06/13 05:08:05;;;;;;;2.10;1.47;;;;;;;20.65;53.78;100425.34;;;;-51
2019/06/13 05:11:05;;;;;;;2.04;1.47;;;;;;;20.57;54.49;100428.31;;;;-54
2019/06/13 05:14:05;;;;;;;2.37;1.71;;;;;;;20.47;54.73;100422.25;;;;-58
2019/06/13 05:17:05;;;;;;;3.73;1.83;;;;;;;20.46;55.12;100420.20;;;;-60
2019/06/13 05:20:06;;;;;;;3.77;1.70;;;;;;;20.45;55.50;100424.75;;;;-50
2019/06/13 05:23:06;;;;;;;3.90;1.75;;;;;;;20.47;55.60;100422.09;;;;-49
2019/06/13 05:26:05;;;;;;;3.27;1.93;;;;;;;20.47;55.76;100421.98;;;;-48
2019/06/13 05:29:05;;;;;;;3.35;1.89;;;;;;;20.44;55.87;100419.61;;;;-49
2019/06/13 05:32:06;;;;;;;2.27;1.77;;;;;;;20.46;55.80;100420.33;;;;-48
2019/06/13 05:35:06;;;;;;;4.00;1.77;;;;;;;20.44;55.89;100421.30;;;;-51
2019/06/13 05:38:05;;;;;;;2.67;1.77;;;;;;;20.45;56.05;100423.85;;;;-49
2019/06/13 05:41:06;;;;;;;5.57;2.08;;;;;;;20.48;55.90;100422.02;;;;-53
2019/06/13 05:44:05;;;;;;;4.01;1.82;;;;;;;20.48;56.31;100432.66;;;;-57
2019/06/13 05:47:06;;;;;;;2.97;1.97;;;;;;;20.22;57.19;100434.66;;;;-51
2019/06/13 05:50:06;;;;;;;2.27;1.81;;;;;;;20.26;56.73;100433.25;;;;-59
2019/06/13 05:53:06;;;;;;;4.50;1.97;;;;;;;20.39;56.37;100438.20;;;;-54
2019/06/13 05:56:06;;;;;;;4.09;1.81;;;;;;;20.48;56.02;100438.06;;;;-54
2019/06/13 05:59:06;;;;;;;2.43;1.85;;;;;;;20.55;56.09;100432.88;;;;-52
2019/06/13 06:02:05;;;;;;;3.04;1.94;;;;;;;20.61;55.87;100436.13;;;;-53
2019/06/13 06:05:05;;;;;;;4.79;1.70;;;;;;;20.65;55.61;100435.34;;;;-53
2019/06/13 06:08:05;;;;;;;4.07;1.70;;;;;;;20.69;55.43;100440.54;;;;-59
2019/06/13 06:11:05;;;;;;;3.93;1.71;;;;;;;20.73;55.34;100441.94;;;;-60
2019/06/13 06:14:05;;;;;;;3.82;1.84;;;;;;;20.76;55.20;100445.34;;;;-53
2019/06/13 06:17:06;;;;;;;3.89;1.76;;;;;;;20.79;55.17;100442.67;;;;-53
2019/06/13 06:20:05;;;;;;;3.31;1.80;;;;;;;20.82;55.10;100444.56;;;;-51
2019/06/13 06:23:05;;;;;;;3.57;1.60;;;;;;;20.83;55.02;100440.78;;;;-51
2019/06/13 06:26:05;;;;;;;2.91;1.60;;;;;;;20.85;55.08;100437.00;;;;-58
2019/06/13 06:29:06;;;;;;;3.37;1.67;;;;;;;20.87;55.09;100440.23;;;;-48
2019/06/13 06:32:05;;;;;;;4.61;1.68;;;;;;;20.88;55.05;100446.71;;;;-50
2019/06/13 06:35:06;;;;;;;4.17;1.80;;;;;;;20.88;54.97;100445.47;;;;-53
2019/06/13 06:38:06;;;;;;;2.44;1.50;;;;;;;20.90;54.99;100445.65;;;;-51
2019/06/13 06:41:06;;;;;;;3.47;1.59;;;;;;;20.92;54.93;100450.39;;;;-52
2019/06/13 06:44:05;;;;;;;3.09;1.65;;;;;;;20.93;54.91;100444.55;;;;-52
2019/06/13 06:47:05;;;;;;;2.51;1.69;;;;;;;20.92;54.68;100439.41;;;;-52
2019/06/13 06:50:06;;;;;;;3.81;1.68;;;;;;;20.92;54.77;100437.33;;;;-52
2019/06/13 06:53:06;;;;;;;3.22;1.61;;;;;;;20.92;54.74;100441.94;;;;-52
2019/06/13 06:56:06;;;;;;;3.54;1.53;;;;;;;20.92;54.66;100441.86;;;;-53
2019/06/13 06:59:05;;;;;;;3.11;1.57;;;;;;;20.91;54.60;100440.55;;;;-50
2019/06/13 07:02:05;;;;;;;2.05;1.54;;;;;;;20.92;54.58;100442.44;;;;-50
2019/06/13 07:05:05;;;;;;;1.59;1.47;;;;;;;20.91;54.43;100445.02;;;;-50
2019/06/13 07:08:05;;;;;;;1.88;1.40;;;;;;;20.90;54.40;100452.77;;;;-50
2019/06/13 07:11:05;;;;;;;1.63;1.39;;;;;;;20.91;54.38;100459.95;;;;-50
2019/06/13 07:14:06;;;;;;;2.33;1.50;;;;;;;20.92;54.32;100460.80;;;;-50
2019/06/13 07:17:05;;;;;;;3.32;1.45;;;;;;;20.91;54.22;100458.84;;;;-59
2019/06/13 07:20:05;;;;;;;2.56;1.59;;;;;;;20.90;54.17;100453.70;;;;-59
2019/06/13 07:23:05;;;;;;;1.60;1.50;;;;;;;20.91;54.14;100455.22;;;;-59
2019/06/13 07:26:05;;;;;;;2.21;1.43;;;;;;;20.91;54.13;100454.66;;;;-58
2019/06/13 07:29:06;;;;;;;1.47;1.37;;;;;;;20.90;54.04;100454.37;;;;-58
2019/06/13 07:32:05;;;;;;;1.50;1.40;;;;;;;20.89;54.05;100447.96;;;;-58
2019/06/13 07:35:05;;;;;;;1.88;1.40;;;;;;;20.89;54.01;100450.20;;;;-58
2019/06/13 07:38:05;;;;;;;2.01;1.37;;;;;;;20.89;53.95;100450.95;;;;-59
2019/06/13 07:41:05;;;;;;;2.51;1.40;;;;;;;20.89;53.98;100453.13;;;;-50
2019/06/13 07:44:05;;;;;;;1.70;1.53;;;;;;;20.89;53.96;100458.67;;;;-60
2019/06/13 07:47:06;;;;;;;1.78;1.50;;;;;;;20.88;53.93;100453.97;;;;-59
2019/06/13 07:50:05;;;;;;;1.95;1.53;;;;;;;20.88;53.88;100454.70;;;;-58
2019/06/13 07:53:06;;;;;;;2.45;1.43;;;;;;;20.88;53.85;100452.86;;;;-58
2019/06/13 07:56:05;;;;;;;1.49;1.39;;;;;;;20.88;53.82;100452.42;;;;-50
2019/06/13 07:59:05;;;;;;;1.93;1.40;;;;;;;20.89;53.75;100449.03;;;;-50
2019/06/13 08:02:05;;;;;;;1.68;1.45;;;;;;;20.87;53.78;100451.64;;;;-50
2019/06/13 08:05:06;;;;;;;1.77;1.36;;;;;;;20.87;53.74;100450.23;;;;-54
2019/06/13 08:08:06;;;;;;;1.53;1.39;;;;;;;20.88;53.71;100459.50;;;;-55
2019/06/13 08:11:05;;;;;;;1.55;1.34;;;;;;;20.86;53.74;100455.50;;;;-55
2019/06/13 08:14:05;;;;;;;1.51;1.39;;;;;;;20.87;53.71;100457.85;;;;-50
2019/06/13 08:17:05;;;;;;;1.49;1.39;;;;;;;20.87;53.66;100460.03;;;;-50
2019/06/13 08:20:05;;;;;;;1.60;1.50;;;;;;;20.87;53.65;100456.52;;;;-50
2019/06/13 08:23:06;;;;;;;1.47;1.37;;;;;;;20.87;53.63;100461.81;;;;-59
2019/06/13 08:26:06;;;;;;;1.44;1.34;;;;;;;20.87;53.62;100457.75;;;;-58
2019/06/13 08:29:06;;;;;;;1.34;1.24;;;;;;;20.87;53.59;100459.03;;;;-50
2019/06/13 08:32:06;;;;;;;1.56;1.27;;;;;;;20.87;53.60;100462.72;;;;-51
2019/06/13 08:35:06;;;;;;;2.29;1.29;;;;;;;20.86;53.60;100461.11;;;;-52
2019/06/13 08:38:05;;;;;;;1.51;1.40;;;;;;;20.85;53.57;100465.20;;;;-53
2019/06/13 08:41:06;;;;;;;1.54;1.36;;;;;;;20.85;53.57;100463.55;;;;-53
2019/06/13 08:44:05;;;;;;;1.63;1.44;;;;;;;20.85;53.56;100459.72;;;;-58
2019/06/13 08:47:05;;;;;;;1.56;1.33;;;;;;;20.85;53.51;100458.31;;;;-58
2019/06/13 08:50:06;;;;;;;1.83;1.30;;;;;;;20.85;53.52;100457.71;;;;-59
2019/06/13 08:53:06;;;;;;;2.27;1.40;;;;;;;20.86;53.50;100453.95;;;;-58
2019/06/13 08:56:05;;;;;;;1.63;1.27;;;;;;;20.86;53.50;100453.66;;;;-59
2019/06/13 08:59:05;;;;;;;1.33;1.20;;;;;;;20.86;53.43;100452.55;;;;-58
2019/06/13 09:02:06;;;;;;;1.40;1.30;;;;;;;20.85;53.42;100449.05;;;;-50
2019/06/13 09:05:06;;;;;;;1.50;1.39;;;;;;;20.85;53.41;100448.04;;;;-50
2019/06/13 09:08:06;;;;;;;1.49;1.38;;;;;;;20.85;53.45;100442.44;;;;-50
2019/06/13 09:11:05;;;;;;;1.44;1.21;;;;;;;20.84;53.44;100444.34;;;;-58
2019/06/13 09:14:05;;;;;;;1.48;1.38;;;;;;;20.84;53.42;100444.84;;;;-59
2019/06/13 09:17:06;;;;;;;1.41;1.31;;;;;;;20.85;53.39;100440.66;;;;-55
2019/06/13 09:20:05;;;;;;;1.52;1.30;;;;;;;20.84;53.38;100438.70;;;;-53
2019/06/13 09:23:06;;;;;;;1.61;1.25;;;;;;;20.84;53.41;100437.26;;;;-52
2019/06/13 09:26:06;;;;;;;1.31;1.21;;;;;;;20.84;53.35;100436.59;;;;-52
2019/06/13 09:29:06;;;;;;;1.57;1.27;;;;;;;20.85;53.38;100445.36;;;;-52
2019/06/13 09:32:05;;;;;;;1.35;1.25;;;;;;;20.84;53.34;100439.04;;;;-53
2019/06/13 09:35:05;;;;;;;1.81;1.29;;;;;;;20.84;53.36;100437.97;;;;-55
2019/06/13 09:38:06;;;;;;;1.41;1.31;;;;;;;20.84;53.60;100442.53;;;;-57
2019/06/13 09:41:06;;;;;;;1.90;1.42;;;;;;;20.86;53.62;100442.20;;;;-51
2019/06/13 09:44:05;;;;;;;1.41;1.30;;;;;;;20.87;53.53;100445.03;;;;-51
2019/06/13 09:47:05;;;;;;;4.15;1.30;;;;;;;20.89;53.66;100443.09;;;;-54
2019/06/13 09:50:05;;;;;;;4.72;1.49;;;;;;;20.90;53.90;100441.02;;;;-57
2019/06/13 09:53:05;;;;;;;2.49;1.51;;;;;;;20.93;53.99;100443.92;;;;-53
2019/06/13 09:56:05;;;;;;;3.86;1.32;;;;;;;20.94;54.35;100437.81;;;;-59
2019/06/13 09:59:06;;;;;;;4.44;1.58;;;;;;;20.97;54.41;100437.36;;;;-58
2019/06/13 10:02:06;;;;;;;5.88;1.58;;;;;;;20.99;54.13;100433.03;;;;-51
2019/06/13 10:05:05;;;;;;;4.61;1.41;;;;;;;21.01;54.24;100433.11;;;;-57
2019/06/13 10:08:05;;;;;;;3.66;1.38;;;;;;;21.02;54.32;100432.74;;;;-58
2019/06/13 10:11:05;;;;;;;1.68;1.40;;;;;;;21.04;54.13;100434.97;;;;-60
2019/06/13 10:14:05;;;;;;;4.53;1.48;;;;;;;21.05;54.13;100432.66;;;;-58
2019/06/13 10:17:06;;;;;;;3.65;1.55;;;;;;;21.04;54.11;100435.06;;;;-60
2019/06/13 10:20:06;;;;;;;3.11;1.50;;;;;;;21.06;54.20;100431.34;;;;-60
2019/06/13 10:23:06;;;;;;;3.69;1.49;;;;;;;21.04;54.17;100422.70;;;;-52
2019/06/13 10:26:05;;;;;;;4.54;1.33;;;;;;;21.04;54.14;100419.45;;;;-59
2019/06/13 10:29:05;;;;;;;7.46;1.60;;;;;;;21.06;54.15;100422.38;;;;-49
2019/06/13 10:32:05;;;;;;;3.23;1.40;;;;;;;21.07;54.05;100416.81;;;;-53
2019/06/13 10:35:05;;;;;;;5.03;1.44;;;;;;;21.08;54.08;100422.86;;;;-61
2019/06/13 10:38:06;;;;;;;3.52;1.50;;;;;;;21.08;54.04;100414.77;;;;-53
2019/06/13 10:41:05;;;;;;;6.71;1.47;;;;;;;21.10;54.06;100413.97;;;;-52
2019/06/13 10:44:05;;;;;;;4.12;1.45;;;;;;;21.11;54.01;100412.93;;;;-51
2019/06/13 10:47:05;;;;;;;4.37;1.31;;;;;;;21.12;53.96;100409.91;;;;-52
2019/06/13 10:50:05;;;;;;;3.44;1.38;;;;;;;21.13;54.00;100410.05;;;;-52
2019/06/13 10:53:05;;;;;;;2.41;1.45;;;;;;;21.13;54.02;100406.63;;;;-57
2019/06/13 10:56:05;;;;;;;2.04;1.29;;;;;;;21.15;53.95;100408.71;;;;-60
2019/06/13 10:59:05;;;;;;;5.55;1.51;;;;;;;21.13;54.13;100405.01;;;;-61
2019/06/13 11:02:05;;;;;;;4.12;1.46;;;;;;;21.15;53.93;100403.64;;;;-53
2019/06/13 11:05:05;;;;;;;4.32;1.41;;;;;;;21.15;54.03;100396.95;;;;-63
2019/06/13 11:08:05;;;;;;;5.39;1.52;;;;;;;21.14;53.86;100394.97;;;;-59
2019/06/13 11:11:05;;;;;;;3.25;1.49;;;;;;;21.13;53.90;100390.00;;;;-63
2019/06/13 11:14:05;;;;;;;5.78;1.53;;;;;;;21.12;53.92;100391.80;;;;-54
2019/06/13 11:17:06;;;;;;;2.02;1.37;;;;;;;21.12;53.82;100391.94;;;;-55
2019/06/13 11:20:05;;;;;;;2.93;1.39;;;;;;;21.10;53.83;100388.51;;;;-55
2019/06/13 11:23:05;;;;;;;2.39;1.47;;;;;;;21.10;53.76;100383.44;;;;-64
2019/06/13 11:26:05;;;;;;;3.69;1.25;;;;;;;21.10;53.71;100378.27;;;;-63
2019/06/13 11:29:05;;;;;;;2.49;1.30;;;;;;;21.10;53.73;100380.42;;;;-59
2019/06/13 11:32:05;;;;;;;3.71;1.40;;;;;;;21.11;53.78;100381.09;;;;-54
2019/06/13 11:35:06;;;;;;;3.30;1.37;;;;;;;21.12;53.75;100380.80;;;;-49
2019/06/13 11:38:06;;;;;;;4.43;1.33;;;;;;;21.14;53.73;100380.77;;;;-53
2019/06/13 11:41:05;;;;;;;5.59;1.41;;;;;;;21.13;53.74;100377.14;;;;-57
2019/06/13 11:44:05;;;;;;;3.29;1.35;;;;;;;21.15;53.66;100374.95;;;;-52
2019/06/13 11:47:05;;;;;;;2.44;1.39;;;;;;;21.14;53.84;100375.83;;;;-58
2019/06/13 11:50:06;;;;;;;4.08;1.50;;;;;;;21.15;53.79;100373.75;;;;-55
2019/06/13 11:53:05;;;;;;;1.71;1.30;;;;;;;21.15;53.76;100368.41;;;;-59
2019/06/13 11:56:05;;;;;;;2.61;1.24;;;;;;;21.16;53.92;100372.81;;;;-63
2019/06/13 11:59:05;;;;;;;3.93;1.40;;;;;;;21.17;53.80;100372.00;;;;-63
2019/06/13 12:02:05;;;;;;;14.79;1.71;;;;;;;21.19;54.43;100371.70;;;;-49
2019/06/13 12:05:05;;;;;;;9.86;1.97;;;;;;;21.21;54.02;100379.27;;;;-51
2019/06/13 12:08:05;;;;;;;7.17;1.86;;;;;;;21.22;53.97;100366.54;;;;-47
2019/06/13 12:11:05;;;;;;;5.60;1.51;;;;;;;21.23;53.91;100367.15;;;;-51
2019/06/13 12:14:06;;;;;;;5.58;1.55;;;;;;;21.23;53.80;100368.77;;;;-49
2019/06/13 12:17:05;;;;;;;7.97;1.93;;;;;;;21.22;53.97;100365.37;;;;-51
2019/06/13 12:20:05;;;;;;;7.93;1.67;;;;;;;21.23;54.08;100361.70;;;;-53
2019/06/13 12:23:05;;;;;;;5.66;1.60;;;;;;;21.25;54.03;100362.62;;;;-51
2019/06/13 12:26:05;;;;;;;5.06;1.79;;;;;;;21.25;53.98;100359.49;;;;-48
2019/06/13 12:29:06;;;;;;;8.09;1.67;;;;;;;21.26;53.99;100362.55;;;;-58
2019/06/13 12:32:06;;;;;;;6.88;1.63;;;;;;;21.26;53.94;100359.80;;;;-56
2019/06/13 12:35:05;;;;;;;4.25;1.59;;;;;;;21.27;53.98;100358.29;;;;-51
2019/06/13 12:38:05;;;;;;;6.13;1.74;;;;;;;21.26;53.81;100354.77;;;;-56
2019/06/13 12:41:05;;;;;;;7.93;1.68;;;;;;;21.27;53.93;100349.76;;;;-56
2019/06/13 12:44:05;;;;;;;5.31;1.58;;;;;;;21.28;53.87;100349.76;;;;-51
2019/06/13 12:47:05;;;;;;;3.62;1.50;;;;;;;21.29;53.99;100349.22;;;;-61
2019/06/13 12:50:05;;;;;;;6.66;1.75;;;;;;;21.29;53.96;100345.52;;;;-52
2019/06/13 12:53:05;;;;;;;3.27;1.55;;;;;;;21.29;53.86;100343.24;;;;-50
2019/06/13 12:56:05;;;;;;;4.72;1.50;;;;;;;21.30;53.92;100352.72;;;;-63
2019/06/13 12:59:05;;;;;;;4.35;1.55;;;;;;;21.30;53.89;100346.41;;;;-60
2019/06/13 13:02:05;;;;;;;7.03;1.62;;;;;;;21.30;53.86;100344.15;;;;-58
2019/06/13 13:05:05;;;;;;;2.95;1.41;;;;;;;21.32;53.89;100351.34;;;;-57
2019/06/13 13:08:05;;;;;;;6.15;1.55;;;;;;;21.31;53.87;100345.87;;;;-51
2019/06/13 13:11:05;;;;;;;2.21;1.37;;;;;;;21.31;53.80;100342.67;;;;-67
2019/06/13 13:14:05;;;;;;;2.48;1.36;;;;;;;21.33;53.91;100354.91;;;;-60
2019/06/13 13:17:06;;;;;;;4.75;1.41;;;;;;;21.33;53.80;100344.66;;;;-56
2019/06/13 13:20:05;;;;;;;4.46;1.49;;;;;;;21.32;53.83;100349.27;;;;-59
2019/06/13 13:23:05;;;;;;;4.47;1.45;;;;;;;21.33;53.90;100352.55;;;;-52
2019/06/13 13:26:05;;;;;;;4.09;1.65;;;;;;;21.33;53.71;100344.05;;;;-63
2019/06/13 13:29:06;;;;;;;5.55;1.58;;;;;;;21.32;53.93;100338.74;;;;-55
2019/06/13 13:32:06;;;;;;;5.05;1.73;;;;;;;21.33;54.07;100333.06;;;;-56
2019/06/13 13:35:05;;;;;;;5.92;1.74;;;;;;;21.34;53.92;100334.45;;;;-57
2019/06/13 13:38:06;;;;;;;6.48;1.61;;;;;;;21.34;54.18;100337.37;;;;-50
2019/06/13 13:41:06;;;;;;;4.85;1.41;;;;;;;21.35;54.10;100333.54;;;;-56
2019/06/13 13:44:05;;;;;;;3.97;1.51;;;;;;;21.35;54.03;100324.50;;;;-52
2019/06/13 13:47:05;;;;;;;3.17;1.67;;;;;;;21.36;54.06;100325.01;;;;-52
2019/06/13 13:50:06;;;;;;;4.47;1.61;;;;;;;21.37;54.05;100319.23;;;;-51
2019/06/13 13:53:05;;;;;;;4.95;1.53;;;;;;;21.38;54.01;100312.20;;;;-54
2019/06/13 13:56:05;;;;;;;3.70;1.50;;;;;;;21.36;54.02;100315.64;;;;-49
2019/06/13 13:59:06;;;;;;;4.65;1.55;;;;;;;21.37;54.02;100318.83;;;;-51
2019/06/13 14:02:05;;;;;;;4.47;1.58;;;;;;;21.38;53.91;100315.77;;;;-52
2019/06/13 14:05:05;;;;;;;5.77;1.75;;;;;;;21.39;53.89;100315.27;;;;-51
2019/06/13 14:08:06;;;;;;;5.33;1.75;;;;;;;21.39;53.90;100311.23;;;;-57
2019/06/13 14:11:05;;;;;;;2.39;1.52;;;;;;;21.39;53.83;100317.92;;;;-52
2019/06/13 14:14:05;;;;;;;3.52;1.51;;;;;;;21.39;53.95;100303.31;;;;-60
2019/06/13 14:17:05;;;;;;;4.27;1.48;;;;;;;21.39;53.89;100304.14;;;;-51
2019/06/13 14:20:06;;;;;;;6.61;1.51;;;;;;;21.40;53.72;100305.05;;;;-51
2019/06/13 14:23:05;;;;;;;8.31;1.76;;;;;;;21.40;53.95;100308.62;;;;-48
2019/06/13 14:26:06;;;;;;;8.21;1.54;;;;;;;21.42;54.20;100312.78;;;;-46
2019/06/13 14:29:05;;;;;;;14.72;1.79;;;;;;;21.42;54.40;100310.03;;;;-49
2019/06/13 14:32:06;;;;;;;11.76;1.65;;;;;;;21.43;54.43;100313.32;;;;-51
2019/06/13 14:35:05;;;;;;;8.41;1.54;;;;;;;21.43;54.37;100303.08;;;;-61
2019/06/13 14:38:05;;;;;;;6.67;1.59;;;;;;;21.44;54.25;100306.91;;;;-52
2019/06/13 14:41:05;;;;;;;9.20;1.93;;;;;;;21.45;54.33;100309.09;;;;-50
2019/06/13 14:44:05;;;;;;;6.37;1.67;;;;;;;21.44;54.13;100308.81;;;;-52
2019/06/13 14:47:05;;;;;;;3.68;1.59;;;;;;;21.44;54.12;100306.63;;;;-55
2019/06/13 14:50:05;;;;;;;4.69;1.47;;;;;;;21.44;53.99;100299.98;;;;-56
2019/06/13 14:53:05;;;;;;;7.08;1.80;;;;;;;21.44;54.13;100305.36;;;;-54
2019/06/13 14:56:05;;;;;;;5.87;1.74;;;;;;;21.45;54.14;100307.78;;;;-54
2019/06/13 14:59:05;;;;;;;8.41;1.79;;;;;;;21.45;54.01;100306.67;;;;-48
2019/06/13 15:02:05;;;;;;;6.91;1.56;;;;;;;21.45;54.00;100308.95;;;;-59
2019/06/13 15:05:06;;;;;;;4.67;1.51;;;;;;;21.44;53.97;100296.22;;;;-59
2019/06/13 15:08:05;;;;;;;5.24;1.52;;;;;;;21.42;54.12;100309.59;;;;-58
2019/06/13 15:11:05;;;;;;;5.41;1.55;;;;;;;21.44;53.92;100310.60;;;;-61
2019/06/13 15:14:05;;;;;;;4.77;1.62;;;;;;;21.44;53.85;100308.14;;;;-60
2019/06/13 15:17:06;;;;;;;4.78;1.53;;;;;;;21.44;53.93;100316.21;;;;-61
2019/06/13 15:20:05;;;;;;;4.57;1.63;;;;;;;21.45;53.84;100316.92;;;;-58
2019/06/13 15:23:05;;;;;;;3.87;1.55;;;;;;;21.44;53.89;100314.70;;;;-58
2019/06/13 15:26:05;;;;;;;4.57;1.48;;;;;;;21.44;53.75;100317.83;;;;-59
2019/06/13 15:29:05;;;;;;;4.42;1.63;;;;;;;21.44;53.73;100316.98;;;;-58
2019/06/13 15:32:05;;;;;;;6.68;1.69;;;;;;;21.45;53.86;100315.07;;;;-54
2019/06/13 15:35:05;;;;;;;4.54;1.49;;;;;;;21.45;53.82;100318.43;;;;-55
2019/06/13 15:38:05;;;;;;;3.63;1.50;;;;;;;21.45;53.83;100320.11;;;;-53
2019/06/13 15:41:05;;;;;;;3.54;1.52;;;;;;;21.46;53.77;100318.36;;;;-52
2019/06/13 15:44:05;;;;;;;3.85;1.58;;;;;;;21.47;53.83;100315.20;;;;-53
2019/06/13 15:47:05;;;;;;;3.99;1.44;;;;;;;21.47;53.78;100310.44;;;;-53
2019/06/13 15:50:05;;;;;;;3.81;1.55;;;;;;;21.46;53.81;100310.50;;;;-52
2019/06/13 15:53:05;;;;;;;2.60;1.41;;;;;;;21.47;53.84;100308.02;;;;-59
2019/06/13 15:56:05;;;;;;;3.13;1.40;;;;;;;21.48;53.82;100312.89;;;;-52
2019/06/13 15:59:05;;;;;;;9.47;1.60;;;;;;;21.47;53.69;100313.39;;;;-56
2019/06/13 16:02:05;;;;;;;3.16;1.39;;;;;;;21.48;53.67;100310.37;;;;-52
2019/06/13 16:05:05;;;;;;;3.21;1.36;;;;;;;21.46;53.75;100308.66;;;;-51
2019/06/13 16:08:05;;;;;;;4.01;1.45;;;;;;;21.46;53.79;100308.72;;;;-53
2019/06/13 16:11:05;;;;;;;4.67;1.59;;;;;;;21.47;53.75;100307.41;;;;-51
2019/06/13 16:14:05;;;;;;;3.01;1.33;;;;;;;21.48;53.78;100311.81;;;;-50
2019/06/13 16:17:05;;;;;;;3.13;1.35;;;;;;;21.49;53.83;100315.81;;;;-48
2019/06/13 16:20:06;;;;;;;4.84;1.48;;;;;;;21.49;53.73;100309.49;;;;-57
2019/06/13 16:23:05;;;;;;;4.40;1.49;;;;;;;21.49;53.72;100305.29;;;;-51
2019/06/13 16:26:05;;;;;;;3.48;1.52;;;;;;;21.48;53.78;100307.78;;;;-52
2019/06/13 16:29:05;;;;;;;5.57;1.55;;;;;;;21.46;53.72;100304.59;;;;-52
2019/06/13 16:32:05;;;;;;;3.27;1.43;;;;;;;21.45;53.71;100307.84;;;;-51
2019/06/13 16:35:05;;;;;;;2.81;1.48;;;;;;;21.43;53.80;100301.22;;;;-52
2019/06/13 16:38:05;;;;;;;4.82;1.30;;;;;;;21.42;53.74;100299.95;;;;-52
2019/06/13 16:41:05;;;;;;;3.69;1.42;;;;;;;21.41;53.68;100302.67;;;;-51
2019/06/13 16:44:05;;;;;;;2.90;1.28;;;;;;;21.42;53.69;100310.16;;;;-52